KMOT/MOT METAR and TAF weather

Enter ICAO airport designator
Station Type Date Time Source
KMOT METAR 2019/04/18 22:54 UTC NOAA

KMOT 182254Z 32011KT 10SM SCT050 14/01 A3003 RMK AO2 SLP178 T01390006


Station Type Date Time Source
KMOT Decoded METAR 2019/04/18 22:54 UTC NOAA

MINOT INTERNATIONAL AIRPORT , ND, United States (KMOT) 48-16N 101-17W 519M
Apr 18, 2019 - 06:54 PM EDT / 2019.04.18 2254 UTC
Wind: from the NW (320 degrees) at 13 MPH (11 KT):0
Visibility: 10 mile(s):0
Sky conditions: partly cloudy
Temperature: 57.0 F (13.9 C)
Dew Point: 33.1 F (0.6 C)
Relative Humidity: 40%
Pressure (altimeter): 30.03 in. Hg (1016 hPa)
ob: KMOT 182254Z 32011KT 10SM SCT050 14/01 A3003 RMK AO2 SLP178 T01390006
cycle: 23

Station Type Date Time Source
KMOT TAF 2019/04/18 18:28 UTC NOAA

TAF
AMD KMOT 181826Z 1818/1918 31009KT P6SM BKN035
FM182100 32011KT P6SM SCT040
FM190200 28005KT P6SM FEW250
FM190400 22005KT P6SM SKC
FM191500 19011KT P6SM SCT200

Example: see airport list